Latest Coastal Weather Observations for Brisbane Airport

IDQ60701

Issued at 7:51 pm EST Tuesday 24 May 2016 (issued every 10 minutes, with the page automatically refreshed every 10 minutes)

About coastal observations | Map of coastal stations | Coastal observations for QLD | Marine services | Other Formats
Station Details ID: 040842 Name: BRISBANE AERO Lat: -27.39 Lon: 153.13 Height: 4.51 m
Data from the previous 72 hours. | See also: Recent months at Brisbane Airport
Date/Time
EST
Temp

°C
Wind Pressure Rain
since 9am
mm
Weather Cloud Vis
km
Sea
Height
m
Swell
Dir
 
Speed
knots
Gust
knots
hPa Trend Height
m
Period
s
Dir
24/07:30pm 16.6 WSW 2 5 1017.3 - 0.0 - - 10 - - - -
24/07:00pm 17.2 CALM 0 0 1016.9 - 0.0 - - 10 - - - -
24/06:30pm 18.2 E 4 5 1016.7 - 0.0 - - 10 - - - -
24/06:00pm 19.4 E 4 5 1016.4 F 0.0 Fine Mostly clear 30 - - - -
24/05:30pm 20.1 E 4 5 1016.0 - 0.0 - - 10 - - - -
24/05:00pm 21.0 ESE 4 6 1015.7 - 0.0 - - 10 - - - -
24/04:30pm 22.1 E 5 9 1015.5 - 0.0 - - 10 - - - -
24/04:00pm 22.8 E 6 8 1015.3 - 0.0 - - 10 - - - -
24/03:30pm 23.5 ENE 7 10 1015.4 - 0.0 - - 10 - - - -
24/03:00pm 23.8 ENE 7 10 1015.2 R 0.0 Fine Mostly clear 30 - - - -
24/02:30pm 23.8 ENE 9 14 1015.0 - 0.0 - - 10 - - - -
24/02:00pm 24.0 E 8 12 1014.9 - 0.0 - - 10 - - - -
24/01:30pm 24.0 ESE 8 14 1015.1 - 0.0 - - 10 - - - -
24/01:00pm 24.2 E 9 14 1015.3 - 0.0 - - 10 - - - -
24/12:30pm 24.2 E 9 15 1015.5 - 0.0 - - 10 - - - -
24/12:00pm 24.4 ESE 10 15 1016.0 F 0.0 Fine Mostly clear 30 - - - -
24/11:30am 24.7 ESE 9 15 1016.5 - 0.0 - - 10 - - - -
24/11:00am 24.7 ESE 9 15 1017.0 - 0.0 - - 10 - - - -
24/10:30am 24.8 SE 8 13 1017.5 - 0.0 - - 10 - - - -
24/10:00am 24.0 SSE 9 15 1017.7 - 0.0 - - 10 - - - -
24/09:30am 23.7 S 7 10 1017.8 - 0.0 - - 10 - - - -
24/09:00am 22.3 S 5 6 1017.9 R 0.0 Fine Mostly clear 30 - - - -
24/08:30am 20.6 ESE 4 6 1017.7 - 0.0 - - 10 - - - -
24/08:00am 18.9 S 6 8 1017.5 - 0.0 - - 10 - - - -
24/07:30am 16.6 SSW 5 7 1016.9 - 0.0 - - 10 - - - -
24/07:00am 14.3 SW 7 11 1016.6 - 0.0 - - 10 - - - -
24/06:30am 14.3 SSW 7 8 1016.3 - 0.0 - - 10 - - - -
24/06:00am 14.4 SSW 7 8 1016.1 F 0.0 Fine Partly cloudy 25 - - - -
24/05:30am 15.2 SSW 6 8 1015.7 - 0.0 - Partly cloudy 10 - - - -
24/05:00am 15.5 SSW 4 6 1015.4 - 0.0 - - 10 - - - -
24/04:30am 15.6 SSW 5 7 1015.6 - 0.0 - Partly cloudy 10 - - - -
24/04:00am 14.6 CALM 0 0 1015.6 - 0.0 - - 10 - - - -
24/03:30am 15.7 SSW 3 5 1015.7 - 0.0 - - 10 - - - -
24/03:00am 14.9 SW 6 6 1015.8 R 0.0 Fine Partly cloudy 20 - - - -
24/02:30am 16.1 SSW 5 6 1015.8 - 0.0 - - 10 - - - -
24/02:00am 16.2 W 4 5 1015.8 - 0.0 - - 10 - - - -
24/01:30am 16.5 W 4 4 1015.8 - 0.0 - - 10 - - - -
24/01:00am 17.6 NW 4 5 1015.9 - 0.0 - - 10 - - - -
24/12:30am 17.5 NW 4 5 1016.1 - 0.0 - - 10 - - - -
24/12:00am 17.5 NNW 4 6 1016.3 F 0.0 Fine Mostly cloudy 20 - - - -
 
Date/Time
EST
Temp

°C
Wind Pressure Rain
since 9am
mm
Weather Cloud Vis
km
Sea
Height
m
Swell
Dir
 
Speed
knots
Gust
knots
hPa Trend Height
m
Period
s
Dir
23/11:30pm 17.7 CALM 0 0 1016.4 - 0.0 - - 10 - - - -
23/11:00pm 18.1 NNW 5 6 1016.5 - 0.0 - - 10 - - - -
23/10:30pm 18.8 NNW 6 7 1016.6 - 0.0 - - 10 - - - -
23/10:00pm 19.4 NNW 6 10 1016.7 - 0.0 - - 10 - - - -
23/09:30pm 20.1 N 9 10 1016.6 - 0.0 - - 10 - - - -
23/09:00pm 19.9 N 9 14 1016.9 F 0.0 Haze Mostly cloudy 20 - - - -
23/08:30pm 20.4 N 8 10 1016.9 - 0.0 - - 10 - - - -
23/08:00pm 20.5 N 10 15 1017.0 - 0.0 - - 10 - - - -
23/07:30pm 21.3 N 11 15 1016.9 - 0.0 - - 10 - - - -
23/07:00pm 21.3 N 11 15 1016.7 - 0.0 - - 10 - - - -
23/06:30pm 21.3 N 11 14 1016.4 - 0.0 - - 10 - - - -
23/06:00pm 21.7 N 11 14 1016.2 F 0.0 Haze Mostly cloudy 20 - - - -
23/05:30pm 21.5 N 10 14 1015.7 - 0.0 - - 10 - - - -
23/05:00pm 21.9 N 11 15 1015.6 - 0.0 - Mostly clear 10 - - - -
23/04:30pm 22.6 N 13 17 1015.5 - 0.0 - Mostly clear 10 - - - -
23/04:00pm 22.9 NNE 13 18 1015.5 - 0.0 - Mostly clear 10 - - - -
23/03:30pm 23.5 NNE 12 14 1015.3 - 0.0 - Mostly clear 10 - - - -
23/03:00pm 23.7 NNE 11 14 1015.2 F 0.0 Haze Mostly clear 20 - - - -
23/02:30pm 24.3 NNE 12 15 1015.4 - 0.0 - Mostly clear 10 - - - -
23/02:00pm 24.6 NNE 10 13 1015.7 - 0.0 - Mostly clear 10 - - - -
23/01:30pm 24.5 NNE 11 14 1015.9 - 0.0 - Mostly clear 10 - - - -
23/01:00pm 24.3 NNE 9 11 1016.4 - 0.0 - Mostly clear 10 - - - -
23/12:30pm 24.5 N 9 12 1017.0 - 0.0 - Mostly clear 10 - - - -
23/12:00pm 24.3 NNE 9 10 1017.6 F 0.0 Haze Mostly clear 20 - - - -
23/11:30am 25.5 N 8 13 1018.4 - 0.0 - Mostly clear 10 - - - -
23/11:00am 24.2 NNW 6 13 1018.9 - 0.0 - Mostly clear 10 - - - -
23/10:30am 23.3 NNW 4 6 1019.6 - 0.0 - Mostly clear 10 - - - -
23/10:00am 22.3 WNW 5 8 1020.1 - 0.0 - Mostly clear 10 - - - -
23/09:30am 21.3 SSW 4 6 1020.6 - 0.0 - - 10 - - - -
23/09:00am 19.6 SSW 6 7 1020.8 F 0.0 Haze Partly cloudy 20 - - - -
23/08:30am 17.7 SSW 5 6 1020.9 - 0.0 - - 10 - - - -
23/08:00am 16.5 SSW 6 7 1020.9 - 0.0 - - 10 - - - -
23/07:30am 15.9 SSW 7 8 1020.7 - 0.0 - - 10 - - - -
23/07:00am 14.6 SW 8 10 1020.6 - 0.0 - - 10 - - - -
23/06:30am 14.2 SSW 7 8 1020.1 - 0.0 - - 10 - - - -
23/06:00am 14.4 SSW 7 9 1020.1 F 0.0 Fine Partly cloudy 25 - - - -
23/05:30am 14.7 SSW 7 9 1020.1 - 0.0 - - 10 - - - -
23/05:00am 14.8 SSW 7 8 1020.1 - 0.0 - - 10 - - - -
23/04:30am 16.0 SSW 6 7 1019.8 - 0.0 - Mostly clear 10 - - - -
23/04:00am 15.8 SSW 7 9 1020.0 - 0.0 - - 10 - - - -
23/03:30am 15.1 SSW 6 8 1020.1 - 0.0 - - 10 - - - -
23/03:00am 15.3 SSW 7 8 1019.9 F 0.0 Fine Mostly clear 30 - - - -
23/02:30am 15.0 SW 6 6 1020.2 - 0.0 - Mostly clear 10 - - - -
23/02:00am 15.5 SW 5 6 1020.5 - 0.0 - Mostly clear 10 - - - -
23/01:30am 15.7 SW 5 6 1020.9 - 0.0 - Partly cloudy 10 - - - -
23/01:00am 15.5 SW 5 6 1021.0 - 0.0 - Partly cloudy 10 - - - -
23/12:30am 15.9 SSW 5 6 1021.1 - 0.0 - Partly cloudy 10 - - - -
23/12:00am 15.8 SW 5 5 1021.3 F 0.0 Fine Mostly clear 25 - - - -
 
Date/Time
EST
Temp

°C
Wind Pressure Rain
since 9am
mm
Weather Cloud Vis
km
Sea
Height
m
Swell
Dir
 
Speed
knots
Gust
knots
hPa Trend Height
m
Period
s
Dir
22/11:30pm 15.8 SSW 5 5 1021.4 - 0.0 - Mostly clear 10 - - - -
22/11:00pm 15.9 SSW 4 5 1021.4 - 0.0 - - 10 - - - -
22/10:30pm 16.8 S 3 4 1021.6 - 0.0 - - 10 - - - -
22/10:00pm 16.9 CALM 0 3 1021.7 - 0.0 - - 10 - - - -
22/09:30pm 18.0 ESE 3 4 1022.0 - 0.0 - - 10 - - - -
22/09:00pm 18.2 E 4 5 1022.0 F 0.0 Fine Clear 30 - - - -
22/08:30pm 18.3 E 4 5 1022.1 - 0.0 - - 10 - - - -
22/08:00pm 19.2 E 4 5 1022.2 - 0.0 - - 10 - - - -
22/07:30pm 19.4 ENE 4 5 1022.1 - 0.0 - - 10 - - - -
22/07:00pm 19.7 E 4 5 1022.1 - 0.0 - Mostly clear 10 - - - -
22/06:30pm 20.0 E 4 5 1021.9 - 0.0 - Mostly clear 10 - - - -
22/06:00pm 20.6 ENE 4 5 1021.9 F 0.0 Fine Mostly clear 30 - - - -
22/05:30pm 21.5 ENE 4 4 1021.7 - 0.0 - Mostly clear 10 - - - -
22/05:00pm 22.0 ENE 5 7 1021.6 - 0.0 - Mostly clear 10 - - - -
22/04:30pm 22.8 NE 7 10 1021.4 - 0.0 - Mostly clear 10 - - - -
22/04:00pm 23.3 ENE 8 11 1021.3 - 0.0 - Mostly clear 10 - - - -
22/03:30pm 23.7 ENE 8 13 1021.3 - 0.0 - Mostly clear 10 - - - -
22/03:00pm 24.0 ENE 7 10 1021.5 R 0.0 Haze Mostly clear 25 - - - -
22/02:30pm 24.0 E 8 13 1021.3 - 0.0 - Mostly clear 10 - - - -
22/02:00pm 24.6 ENE 9 12 1021.4 - 0.0 - Mostly clear 10 - - - -
22/01:30pm 25.0 NE 8 11 1021.6 - 0.0 - Mostly clear 10 - - - -
22/01:00pm 24.5 ENE 8 13 1022.1 - 0.0 - Mostly clear 10 - - - -
22/12:30pm 24.6 ENE 8 12 1022.4 - 0.0 - Mostly clear 10 - - - -
22/12:00pm 23.6 ESE 7 11 1022.8 R 0.0 Haze Mostly cloudy 25 - - - -
22/11:30am 24.0 SE 6 9 1023.4 - 0.0 - Partly cloudy 10 - - - -
22/11:00am 24.0 ESE 7 12 1023.6 - 0.0 - Partly cloudy 10 - - - -
22/10:30am 24.8 SE 7 12 1024.1 - 0.0 - Partly cloudy 10 - - - -
22/10:00am 23.4 SE 7 12 1024.3 - 0.0 - Mostly clear 10 - - - -
22/09:30am 23.1 SE 7 11 1024.5 - 0.0 - Mostly clear 10 - - - -
22/09:00am 21.7 SE 7 12 1024.2 F 0.0 Haze Mostly cloudy 20 - - - -
22/08:30am 19.7 SSW 5 6 1024.7 - 0.0 - Mostly clear 10 - - - -
22/08:00am 18.9 SSW 5 6 1024.6 - 0.0 - Mostly clear 10 - - - -
22/07:30am 18.0 SW 6 7 1024.6 - 0.0 - Mostly clear 10 - - - -
22/07:00am 18.0 S 4 6 1024.1 - 0.0 - - 10 - - - -
22/06:30am 17.3 SSW 9 12 1024.6 - 0.0 - - 10 - - - -
22/06:00am 16.9 SSW 6 8 1024.2 F 0.0 Fine Mostly cloudy 25 - - - -
22/05:30am 17.6 SSW 5 7 1023.8 - 0.0 - Partly cloudy 10 - - - -
22/05:00am 17.8 SSW 5 6 1023.7 - 0.0 - - 10 - - - -
22/04:30am 17.5 SSW 6 6 1023.5 - 0.0 - Partly cloudy 10 - - - -
22/04:00am 17.7 SW 6 7 1023.9 - 0.0 - Mostly clear 10 - - - -
22/03:30am 18.8 SSW 3 5 1023.9 - 0.0 - Mostly clear 10 - - - -
22/03:00am 18.9 S 5 6 1024.0 R 0.0 Distant precip. Mostly cloudy 20 - - - -
22/02:30am 18.4 S 5 6 1024.2 - 0.0 - Mostly clear 10 - - - -
22/02:00am 19.0 SSW 5 7 1024.3 - 0.0 - Mostly clear 10 - - - -
22/01:30am 19.9 SSW 6 7 1024.2 - 0.0 - Mostly clear 10 - - - -
22/01:00am 20.0 SSW 5 6 1024.1 - 0.0 - Mostly clear 10 - - - -
22/12:30am 19.9 S 3 5 1023.7 - 0.0 - Mostly clear 10 - - - -
22/12:00am 19.7 SSW 4 5 1023.7 R 0.0 Distant precip. Mostly cloudy 20 - - - -
 
Date/Time
EST
Temp

°C
Wind Pressure Rain
since 9am
mm
Weather Cloud Vis
km
Sea
Height
m
Swell
Dir
 
Speed
knots
Gust
knots
hPa Trend Height
m
Period
s
Dir
21/11:30pm 19.2 S 1 5 1023.8 - 0.0 - Mostly clear 10 - - - -
21/11:00pm 19.1 S 4 6 1023.9 - 0.0 - Partly cloudy 10 - - - -
21/10:30pm 19.5 SE 1 4 1024.1 - 0.0 - Mostly clear 10 - - - -
21/10:00pm 19.5 SE 4 5 1024.2 - 0.0 - - 10 - - - -
21/09:30pm 20.3 SSE 4 4 1024.4 - 0.0 - Partly cloudy 10 - - - -
21/09:00pm 20.9 SE 4 5 1024.0 F 0.0 Recent precip. Mostly cloudy 20 - - - -
21/08:30pm 21.1 SSE 5 8 1024.1 - 0.0 Drizzle Mostly clear 10 - - - -
21/08:00pm 21.3 SE 5 7 1024.1 - 0.0 - Mostly clear 10 - - - -

Other Formats:

Comma delimited format used in spreadsheet applications
http://www.bom.gov.au/fwo/IDQ60701/IDQ60701.94578.axf

JavaScript Object Notation format (JSON) in row-major order
http://www.bom.gov.au/fwo/IDQ60701/IDQ60701.94578.json